Time;durP1;ratioP1;P1;durP2;ratioP2;P2;SDS_P1;SDS_P2;PMS_P1;PMS_P2;Temp;Humidity;BMP_temperature;BMP_pressure;BME280_temperature;BME280_humidity;BME280_pressure;Samples;Min_cycle;Max_cycle;Signal;HPM_P1;HPM_P2
2023/05/10 00:01:17;;;;;;;3.77;3.40;;;15.80;99.90;;;;;;4933772;29;20848;-84
2023/05/10 00:03:59;;;;;;;4.70;3.37;;;15.80;99.90;;;;;;4948656;28;20468;-82
2023/05/10 00:06:27;;;;;;;4.17;3.57;;;15.80;99.90;;;;;;4941197;29;20492;-81
2023/05/10 00:08:57;;;;;;;4.67;3.40;;;15.80;99.90;;;;;;4940354;29;20504;-83
2023/05/10 00:11:25;;;;;;;4.23;3.70;;;15.80;99.90;;;;;;4954164;29;20472;-82
2023/05/10 00:14:00;;;;;;;4.53;3.73;;;15.80;99.90;;;;;;4944537;29;20466;-82
2023/05/10 00:16:29;;;;;;;4.07;3.67;;;15.80;99.90;;;;;;4946819;29;20509;-82
2023/05/10 00:19:00;;;;;;;5.00;4.37;;;15.80;99.90;;;;;;4944903;29;20454;-82
2023/05/10 00:21:28;;;;;;;5.13;4.13;;;15.80;99.90;;;;;;4934290;29;20477;-83
2023/05/10 00:24:00;;;;;;;4.40;3.90;;;15.80;99.90;;;;;;4944741;29;20548;-82
2023/05/10 00:26:35;;;;;;;4.10;3.70;;;15.70;99.90;;;;;;4940800;29;20521;-82
2023/05/10 00:29:02;;;;;;;5.73;4.30;;;15.70;99.90;;;;;;4942755;29;20464;-82
2023/05/10 00:31:30;;;;;;;5.13;4.50;;;15.70;99.90;;;;;;4941981;29;20485;-83
2023/05/10 00:34:02;;;;;;;4.63;3.43;;;15.80;99.90;;;;;;4945568;29;20450;-82
2023/05/10 00:36:34;;;;;;;5.13;4.63;;;15.80;99.90;;;;;;4939680;29;20466;-83
2023/05/10 00:39:04;;;;;;;4.80;3.73;;;15.80;99.90;;;;;;4937441;29;21300;-83
2023/05/10 00:41:46;;;;;;;5.70;4.80;;;15.80;99.90;;;;;;4930153;29;20482;-84
2023/05/10 00:44:18;;;;;;;5.30;4.60;;;16.10;99.90;;;;;;4939521;29;20555;-84
2023/05/10 00:46:54;;;;;;;5.90;4.10;;;16.10;99.90;;;;;;4934095;29;20466;-82
2023/05/10 00:49:21;;;;;;;5.00;4.03;;;16.00;99.90;;;;;;4936588;29;20470;-84
2023/05/10 00:51:59;;;;;;;5.23;4.43;;;16.00;99.90;;;;;;4940755;29;21271;-83
2023/05/10 00:54:33;;;;;;;5.77;4.10;;;15.90;99.90;;;;;;4953514;28;20587;-82
2023/05/10 00:57:12;;;;;;;6.53;4.83;;;15.80;99.90;;;;;;4942459;29;20486;-83
2023/05/10 00:59:42;;;;;;;7.77;5.20;;;15.80;99.90;;;;;;4937306;29;20469;-83
2023/05/10 01:02:14;;;;;;;8.20;5.27;;;15.80;99.90;;;;;;4937309;29;20463;-81
2023/05/10 01:04:49;;;;;;;6.03;4.30;;;15.80;99.90;;;;;;4939439;29;20477;-81
2023/05/10 01:07:26;;;;;;;6.53;4.90;;;15.90;99.90;;;;;;4948648;28;20520;-82
2023/05/10 01:09:56;;;;;;;5.63;4.70;;;15.80;99.90;;;;;;4931442;29;20542;-81
2023/05/10 01:12:26;;;;;;;5.23;4.20;;;15.70;99.90;;;;;;4938159;29;20872;-82
2023/05/10 01:15:06;;;;;;;6.40;4.90;;;15.80;99.90;;;;;;4949995;28;20450;-83
2023/05/10 01:17:33;;;;;;;6.73;5.60;;;15.80;99.90;;;;;;4932633;29;21154;-83
2023/05/10 01:20:02;;;;;;;6.13;4.93;;;15.80;99.90;;;;;;4938623;29;20945;-82
2023/05/10 01:22:32;;;;;;;6.20;4.67;;;15.80;99.90;;;;;;4936978;29;20473;-83
2023/05/10 01:25:22;;;;;;;6.37;4.47;;;15.80;99.90;;;;;;4936144;29;20449;-82
2023/05/10 01:28:13;;;;;;;7.03;4.77;;;15.80;99.90;;;;;;4941676;29;20496;-83
2023/05/10 01:30:49;;;;;;;5.80;4.83;;;15.80;99.90;;;;;;4941195;29;20490;-82
2023/05/10 01:33:23;;;;;;;5.30;4.80;;;15.80;99.90;;;;;;4937410;29;20442;-82
2023/05/10 01:36:29;;;;;;;6.20;4.83;;;15.80;99.90;;;;;;4946035;29;20568;-82
2023/05/10 01:39:09;;;;;;;5.10;4.40;;;15.70;99.90;;;;;;4926109;29;20521;-83
2023/05/10 01:41:54;;;;;;;5.30;4.00;;;15.70;99.90;;;;;;4936990;29;20477;-83
2023/05/10 01:44:36;;;;;;;5.70;4.70;;;15.70;99.90;;;;;;4932226;29;20471;-82
2023/05/10 01:47:09;;;;;;;6.10;4.93;;;15.70;99.90;;;;;;4934599;29;20922;-82
2023/05/10 01:49:56;;;;;;;5.20;4.10;;;15.70;99.90;;;;;;4938625;29;20462;-82
2023/05/10 01:52:28;;;;;;;5.87;4.70;;;15.70;99.90;;;;;;4948651;28;20520;-83
2023/05/10 01:55:07;;;;;;;6.20;4.20;;;15.70;99.90;;;;;;4941249;29;20454;-83
2023/05/10 01:57:37;;;;;;;4.57;4.00;;;15.60;99.90;;;;;;4936018;29;20477;-82
2023/05/10 02:00:06;;;;;;;4.10;3.60;;;15.60;99.90;;;;;;4951994;28;20866;-82
2023/05/10 02:02:37;;;;;;;5.47;4.30;;;15.70;99.90;;;;;;4921183;29;20871;-82
2023/05/10 02:05:06;;;;;;;5.00;4.30;;;15.70;99.90;;;;;;4936751;29;20462;-83
2023/05/10 02:07:36;;;;;;;5.53;4.60;;;15.70;99.90;;;;;;4943922;29;20461;-83
2023/05/10 02:10:05;;;;;;;6.93;4.47;;;15.70;99.90;;;;;;4936705;29;20549;-82
2023/05/10 02:12:35;;;;;;;6.27;5.17;;;15.70;99.90;;;;;;4937188;29;20490;-82
2023/05/10 02:15:05;;;;;;;4.40;3.33;;;15.70;99.90;;;;;;4943168;29;20502;-82
2023/05/10 02:17:34;;;;;;;5.57;4.20;;;15.70;99.90;;;;;;4938090;29;20550;-82
2023/05/10 02:20:03;;;;;;;5.37;4.53;;;15.70;99.90;;;;;;4932948;29;20493;-82
2023/05/10 02:22:31;;;;;;;4.33;3.93;;;15.70;99.90;;;;;;4936222;29;20561;-82
2023/05/10 02:25:03;;;;;;;6.07;3.33;;;15.60;99.90;;;;;;4937883;29;20455;-83
2023/05/10 02:27:35;;;;;;;5.13;4.40;;;15.70;99.90;;;;;;4938014;29;20462;-81
2023/05/10 02:30:09;;;;;;;5.10;3.57;;;15.70;99.90;;;;;;4937228;29;20965;-83
2023/05/10 02:32:42;;;;;;;5.00;3.97;;;15.60;99.90;;;;;;4928575;29;20545;-82
2023/05/10 02:35:21;;;;;;;5.20;3.80;;;15.60;99.90;;;;;;4941089;29;20453;-82
2023/05/10 02:38:00;;;;;;;4.20;3.10;;;15.60;99.90;;;;;;4943674;29;20569;-82
2023/05/10 02:40:48;;;;;;;3.17;2.87;;;15.60;99.90;;;;;;4937360;29;20552;-82
2023/05/10 02:43:22;;;;;;;3.67;2.70;;;15.60;99.90;;;;;;4943810;29;20923;-81
2023/05/10 02:45:52;;;;;;;3.60;2.70;;;15.60;99.90;;;;;;4943842;29;20455;-82
2023/05/10 02:48:24;;;;;;;3.40;3.10;;;15.50;99.90;;;;;;4933460;29;20459;-83
2023/05/10 02:51:07;;;;;;;3.63;3.30;;;15.50;99.90;;;;;;4937988;29;20543;-82
2023/05/10 02:53:38;;;;;;;3.30;2.63;;;15.50;99.90;;;;;;4943441;29;20465;-83
2023/05/10 02:56:15;;;;;;;5.40;2.50;;;15.50;99.90;;;;;;4938381;29;20619;-83
2023/05/10 02:59:04;;;;;;;3.07;2.73;;;15.50;99.90;;;;;;4944814;29;20512;-82
2023/05/10 03:01:34;;;;;;;3.77;3.07;;;15.50;99.90;;;;;;4942710;29;20481;-82
2023/05/10 03:04:01;;;;;;;2.90;2.60;;;15.50;99.90;;;;;;4957067;29;20462;-82
2023/05/10 03:06:28;;;;;;;3.43;2.40;;;15.50;99.90;;;;;;4955696;29;20745;-82
2023/05/10 03:08:58;;;;;;;3.03;2.73;;;15.50;99.90;;;;;;4953279;28;20469;-82
2023/05/10 03:11:45;;;;;;;3.20;2.90;;;15.50;99.90;;;;;;4947401;28;20489;-82
2023/05/10 03:14:50;;;;;;;3.43;2.70;;;15.40;99.90;;;;;;4954099;29;20466;-82
2023/05/10 03:17:35;;;;;;;3.40;2.30;;;15.40;99.90;;;;;;4941193;29;20548;-83
2023/05/10 03:20:23;;;;;;;3.10;2.80;;;15.40;99.90;;;;;;4947634;29;20446;-82
2023/05/10 03:23:14;;;;;;;2.70;2.23;;;15.50;99.90;;;;;;4942774;29;20462;-82
2023/05/10 03:25:58;;;;;;;2.77;2.47;;;15.50;99.90;;;;;;4951041;29;20460;-81
2023/05/10 03:28:32;;;;;;;2.67;2.10;;;15.50;99.90;;;;;;4939091;29;20497;-82
2023/05/10 03:31:02;;;;;;;3.40;2.53;;;15.50;99.90;;;;;;4955766;28;20489;-83
2023/05/10 03:33:45;;;;;;;2.80;2.23;;;15.50;99.90;;;;;;4933478;29;20965;-84
2023/05/10 03:36:15;;;;;;;3.53;2.87;;;15.50;99.90;;;;;;4934082;29;20973;-83
2023/05/10 03:38:46;;;;;;;3.60;2.80;;;15.50;99.90;;;;;;4944657;29;21384;-82
2023/05/10 03:41:21;;;;;;;3.40;3.03;;;15.50;99.90;;;;;;4942286;29;20573;-83
2023/05/10 03:43:56;;;;;;;3.30;3.00;;;15.50;99.90;;;;;;4937793;29;20469;-83
2023/05/10 03:46:23;;;;;;;4.93;3.80;;;15.50;99.90;;;;;;4943708;28;20465;-83
2023/05/10 03:48:50;;;;;;;5.10;3.63;;;15.50;99.90;;;;;;4936159;29;20466;-82
2023/05/10 03:51:22;;;;;;;4.10;3.50;;;15.50;99.90;;;;;;4936177;29;20485;-84
2023/05/10 03:53:49;;;;;;;3.87;3.47;;;15.50;99.90;;;;;;4937788;29;20506;-83
2023/05/10 03:56:16;;;;;;;5.60;4.63;;;15.40;99.90;;;;;;4937764;29;20482;-83
2023/05/10 03:58:43;;;;;;;7.73;4.70;;;15.50;99.90;;;;;;4938987;29;20478;-82
2023/05/10 04:01:09;;;;;;;5.53;3.60;;;15.50;99.90;;;;;;4938102;29;20505;-83
2023/05/10 04:03:36;;;;;;;6.10;5.00;;;15.50;99.90;;;;;;4942216;29;20458;-82
2023/05/10 04:06:03;;;;;;;7.00;4.80;;;15.50;99.90;;;;;;4931942;29;20462;-82
2023/05/10 04:08:31;;;;;;;4.97;4.30;;;15.50;99.90;;;;;;4933387;29;20457;-84
2023/05/10 04:11:09;;;;;;;6.80;4.90;;;15.50;99.90;;;;;;4938535;29;20541;-83
2023/05/10 04:13:36;;;;;;;5.80;4.27;;;15.50;99.90;;;;;;4937498;29;20457;-82
2023/05/10 04:16:03;;;;;;;6.40;4.63;;;15.50;99.90;;;;;;4929700;29;20477;-82
2023/05/10 04:18:31;;;;;;;6.30;4.97;;;15.50;99.90;;;;;;4936381;29;21026;-83
2023/05/10 04:20:58;;;;;;;7.50;5.17;;;15.50;99.90;;;;;;4936554;29;20475;-81
2023/05/10 04:23:24;;;;;;;6.80;5.43;;;15.50;99.90;;;;;;4930178;29;20459;-82
2023/05/10 04:25:51;;;;;;;7.40;5.40;;;15.50;99.90;;;;;;4944904;29;21141;-84
2023/05/10 04:28:17;;;;;;;7.40;4.87;;;15.50;99.90;;;;;;4944224;29;20488;-83
2023/05/10 04:30:44;;;;;;;7.20;5.27;;;15.50;99.90;;;;;;4944113;29;20457;-82
2023/05/10 04:33:11;;;;;;;10.37;6.97;;;15.50;99.90;;;;;;4929506;29;20470;-83
2023/05/10 04:35:38;;;;;;;8.20;6.17;;;15.50;99.90;;;;;;4932192;29;20462;-83
2023/05/10 04:38:05;;;;;;;6.07;5.03;;;15.40;99.90;;;;;;4932335;29;20553;-83
2023/05/10 04:40:31;;;;;;;8.40;6.03;;;15.40;99.90;;;;;;4936913;29;20591;-83
2023/05/10 04:42:58;;;;;;;9.03;6.63;;;15.40;99.90;;;;;;4927293;29;20464;-83
2023/05/10 04:45:25;;;;;;;7.10;5.03;;;15.40;99.90;;;;;;4944146;29;20456;-83
2023/05/10 04:47:52;;;;;;;7.07;4.97;;;15.40;99.90;;;;;;4927633;29;20465;-83
2023/05/10 04:50:19;;;;;;;7.00;6.07;;;15.40;99.90;;;;;;4934348;29;20461;-82
2023/05/10 04:52:45;;;;;;;6.33;4.50;;;15.40;99.90;;;;;;4934726;29;20851;-83
2023/05/10 04:55:13;;;;;;;7.20;5.00;;;15.40;99.90;;;;;;4937558;29;20453;-85
2023/05/10 04:57:40;;;;;;;6.57;5.30;;;15.40;99.90;;;;;;4929627;29;20467;-84
2023/05/10 05:00:07;;;;;;;10.10;5.80;;;15.40;99.90;;;;;;4935359;29;20476;-84
2023/05/10 05:02:34;;;;;;;7.03;5.83;;;15.40;99.90;;;;;;4934304;29;21104;-83
2023/05/10 05:05:00;;;;;;;7.90;5.90;;;15.40;99.90;;;;;;4943427;28;20481;-84
2023/05/10 05:07:27;;;;;;;7.80;5.30;;;15.40;99.90;;;;;;4938366;29;21223;-83
2023/05/10 05:09:54;;;;;;;6.43;5.30;;;15.40;99.90;;;;;;4938412;29;20525;-82
2023/05/10 05:12:21;;;;;;;6.30;5.43;;;15.50;99.90;;;;;;4934699;29;20481;-84
2023/05/10 05:14:48;;;;;;;8.60;4.70;;;15.50;99.90;;;;;;4937770;29;20464;-85
2023/05/10 05:17:16;;;;;;;10.30;5.37;;;15.50;99.90;;;;;;4931558;29;20461;-84
2023/05/10 05:19:42;;;;;;;6.73;5.20;;;15.50;99.90;;;;;;4930429;29;20627;-83
2023/05/10 05:22:10;;;;;;;10.30;6.40;;;15.50;99.90;;;;;;4955891;28;20501;-84
2023/05/10 05:24:40;;;;;;;10.00;5.80;;;15.50;99.90;;;;;;4952318;29;20442;-84
2023/05/10 05:27:07;;;;;;;7.00;5.23;;;15.50;99.90;;;;;;4948401;29;20561;-83
2023/05/10 05:29:34;;;;;;;7.90;5.63;;;15.50;99.90;;;;;;4954062;29;20472;-82
2023/05/10 05:32:01;;;;;;;7.37;4.87;;;15.50;99.90;;;;;;4949799;29;20477;-82
2023/05/10 05:34:28;;;;;;;8.20;5.47;;;15.50;99.90;;;;;;4962041;28;20557;-83
2023/05/10 05:36:55;;;;;;;7.23;5.20;;;15.50;99.90;;;;;;4940934;29;20875;-83
2023/05/10 05:39:23;;;;;;;9.10;5.40;;;15.50;99.90;;;;;;4936781;29;20503;-83
2023/05/10 05:41:52;;;;;;;7.67;4.97;;;15.50;99.90;;;;;;4937172;29;20478;-83
2023/05/10 05:44:19;;;;;;;10.03;6.00;;;15.50;99.90;;;;;;4930985;29;20454;-82
2023/05/10 05:46:47;;;;;;;8.53;5.00;;;15.50;99.90;;;;;;4939160;29;20492;-82
2023/05/10 05:49:14;;;;;;;8.70;5.57;;;15.50;99.90;;;;;;4933462;29;20479;-84
2023/05/10 05:51:41;;;;;;;7.17;4.70;;;15.50;99.90;;;;;;4933906;29;20478;-84
2023/05/10 05:54:08;;;;;;;6.03;4.93;;;15.50;99.90;;;;;;4940650;29;20634;-84
2023/05/10 05:56:35;;;;;;;9.47;5.77;;;15.50;99.90;;;;;;4942484;29;20913;-84
2023/05/10 05:59:03;;;;;;;6.80;5.90;;;15.60;99.90;;;;;;4930231;29;20545;-83
2023/05/10 06:01:30;;;;;;;8.70;5.10;;;15.60;99.90;;;;;;4934620;29;20486;-82
2023/05/10 06:04:00;;;;;;;7.30;4.60;;;15.60;99.90;;;;;;4935377;29;20472;-83
2023/05/10 06:06:27;;;;;;;9.50;5.40;;;15.60;99.90;;;;;;4940006;29;20483;-82
2023/05/10 06:08:55;;;;;;;7.70;4.73;;;15.60;99.90;;;;;;4933972;29;20455;-83
2023/05/10 06:11:22;;;;;;;10.07;5.40;;;15.70;99.90;;;;;;4929257;29;20515;-84
2023/05/10 06:13:50;;;;;;;7.80;5.80;;;15.70;99.90;;;;;;4937103;29;20523;-83
2023/05/10 06:16:17;;;;;;;7.17;5.07;;;15.70;99.90;;;;;;4935746;29;20897;-83
2023/05/10 06:18:44;;;;;;;7.30;5.20;;;15.70;99.90;;;;;;4936218;29;20487;-82
2023/05/10 06:21:11;;;;;;;10.00;5.40;;;15.60;99.90;;;;;;4942910;29;20469;-85
2023/05/10 06:23:38;;;;;;;6.20;4.73;;;15.70;99.90;;;;;;4942751;29;20478;-80
2023/05/10 06:26:05;;;;;;;8.20;5.60;;;15.60;99.90;;;;;;4960075;28;20459;-81
2023/05/10 06:28:33;;;;;;;9.40;5.70;;;15.70;99.90;;;;;;4956911;28;20522;-82
2023/05/10 06:31:00;;;;;;;7.50;4.80;;;15.70;99.90;;;;;;4960539;28;20612;-81
2023/05/10 06:33:27;;;;;;;8.20;6.30;;;15.60;99.90;;;;;;4953845;28;20550;-82
2023/05/10 06:35:54;;;;;;;9.80;5.50;;;15.70;99.90;;;;;;4960348;28;20536;-82
2023/05/10 06:38:21;;;;;;;12.40;6.80;;;15.60;99.90;;;;;;4953972;28;20474;-82
2023/05/10 06:40:48;;;;;;;9.80;6.17;;;15.60;99.90;;;;;;4977395;28;20455;-83
2023/05/10 06:43:18;;;;;;;8.50;5.67;;;15.70;99.90;;;;;;4960580;28;20445;-82
2023/05/10 06:45:45;;;;;;;7.70;5.23;;;15.60;99.90;;;;;;4954739;28;22432;-82
2023/05/10 06:48:14;;;;;;;7.40;4.90;;;15.70;99.90;;;;;;4951932;29;20501;-82
2023/05/10 06:50:41;;;;;;;8.23;5.43;;;15.70;99.90;;;;;;4942644;29;20454;-82
2023/05/10 06:53:07;;;;;;;8.20;4.83;;;15.70;99.90;;;;;;4943536;29;20461;-81
2023/05/10 06:55:35;;;;;;;7.53;5.20;;;15.60;99.90;;;;;;4947698;29;20462;-82
2023/05/10 06:58:02;;;;;;;7.77;5.10;;;15.70;99.90;;;;;;4952395;28;20454;-80
2023/05/10 07:01:11;;;;;;;8.53;5.20;;;15.60;99.90;;;;;;4929889;29;20478;-83
2023/05/10 07:04:00;;;;;;;8.40;6.17;;;15.60;99.90;;;;;;4929513;29;20461;-83
2023/05/10 07:06:46;;;;;;;9.60;5.67;;;15.50;99.90;;;;;;4930881;29;20466;-84
2023/05/10 07:09:27;;;;;;;8.43;5.20;;;15.50;99.90;;;;;;4934603;29;20494;-83
2023/05/10 07:11:57;;;;;;;8.50;5.77;;;15.60;99.90;;;;;;4937294;29;20794;-83
2023/05/10 07:14:30;;;;;;;6.23;5.53;;;15.60;99.90;;;;;;4939936;29;20457;-83
2023/05/10 07:17:17;;;;;;;10.63;6.10;;;15.60;99.90;;;;;;4933332;29;20455;-84
2023/05/10 07:20:40;;;;;;;7.30;5.63;;;15.70;99.90;;;;;;4942641;29;20477;-84
2023/05/10 07:23:32;;;;;;;8.77;6.07;;;15.60;99.90;;;;;;4951827;28;20475;-83
2023/05/10 07:26:10;;;;;;;7.33;6.20;;;15.90;99.90;;;;;;4953702;28;20450;-81
2023/05/10 07:28:53;;;;;;;7.77;5.67;;;15.80;99.90;;;;;;4956699;28;20473;-81
2023/05/10 07:31:41;;;;;;;8.10;5.70;;;15.80;99.90;;;;;;4958536;28;20479;-82
2023/05/10 07:34:20;;;;;;;7.97;5.30;;;15.70;99.90;;;;;;4957142;28;20447;-82
2023/05/10 07:37:02;;;;;;;9.20;5.20;;;15.70;99.90;;;;;;4925251;28;20465;-82
2023/05/10 07:39:40;;;;;;;8.57;5.03;;;15.70;99.90;;;;;;4934432;29;20484;-83
2023/05/10 07:42:21;;;;;;;5.10;4.10;;;15.70;99.90;;;;;;4940141;29;20465;-82
2023/05/10 07:44:57;;;;;;;5.80;5.17;;;15.80;99.90;;;;;;4937395;29;20553;-83
2023/05/10 07:47:52;;;;;;;9.40;5.13;;;15.70;99.90;;;;;;4951969;28;20440;-83
2023/05/10 07:50:27;;;;;;;8.33;5.30;;;15.70;99.90;;;;;;4938512;29;20470;-83
2023/05/10 07:53:13;;;;;;;8.10;5.53;;;15.70;99.90;;;;;;4942389;29;20508;-83
2023/05/10 07:55:50;;;;;;;8.10;4.90;;;15.70;99.90;;;;;;4951638;29;20457;-81
2023/05/10 07:58:57;;;;;;;8.50;5.30;;;15.80;99.90;;;;;;4943498;29;20450;-82
2023/05/10 08:01:58;;;;;;;6.97;5.40;;;15.80;99.90;;;;;;4960258;28;20666;-84
2023/05/10 08:04:40;;;;;;;10.83;6.33;;;15.80;99.90;;;;;;4950997;29;20521;-83
2023/05/10 08:07:19;;;;;;;6.27;5.33;;;15.70;99.90;;;;;;4953472;28;20550;-82
2023/05/10 08:10:18;;;;;;;7.10;5.33;;;15.80;99.90;;;;;;4950319;29;20525;-81
2023/05/10 08:13:22;;;;;;;9.00;5.50;;;15.90;99.90;;;;;;4943135;28;20446;-82
2023/05/10 08:16:19;;;;;;;5.10;3.30;;;15.90;99.90;;;;;;4951243;28;20450;-81
2023/05/10 08:18:52;;;;;;;8.70;4.30;;;16.00;99.90;;;;;;4947561;28;20505;-81
2023/05/10 08:21:47;;;;;;;7.20;4.33;;;16.00;99.90;;;;;;4963538;28;20474;-81
2023/05/10 08:24:30;;;;;;;6.77;4.80;;;16.00;99.90;;;;;;4947304;29;20586;-82
2023/05/10 08:27:37;;;;;;;5.73;4.57;;;16.00;99.90;;;;;;4947547;29;20461;-82
2023/05/10 08:30:23;;;;;;;4.37;3.20;;;16.10;99.90;;;;;;4954549;29;20533;-80
2023/05/10 08:33:03;;;;;;;4.77;3.67;;;16.10;99.90;;;;;;4946912;29;20459;-82
2023/05/10 08:35:35;;;;;;;3.43;2.97;;;16.20;99.90;;;;;;4960679;29;21031;-82
2023/05/10 08:38:27;;;;;;;4.13;3.63;;;16.20;99.90;;;;;;4925535;29;20504;-83
2023/05/10 08:41:01;;;;;;;5.00;3.50;;;16.20;99.90;;;;;;4933346;29;20477;-83
2023/05/10 08:43:55;;;;;;;3.60;2.97;;;16.30;99.90;;;;;;4929735;29;20459;-84
2023/05/10 08:47:05;;;;;;;4.60;3.43;;;16.30;99.90;;;;;;4929083;29;20459;-84
2023/05/10 08:49:53;;;;;;;4.33;3.37;;;16.20;99.90;;;;;;4929813;29;20462;-83
2023/05/10 08:52:39;;;;;;;4.10;3.40;;;16.10;99.90;;;;;;4931948;29;20544;-84
2023/05/10 08:55:24;;;;;;;4.63;3.13;;;16.00;99.90;;;;;;4946021;28;20497;-84
2023/05/10 08:58:05;;;;;;;5.40;3.60;;;16.00;99.90;;;;;;4941563;28;20484;-84
2023/05/10 09:00:46;;;;;;;5.03;3.30;;;15.90;99.90;;;;;;4943180;29;20590;-84
2023/05/10 09:03:20;;;;;;;3.43;3.13;;;16.00;99.90;;;;;;4949229;29;20473;-84
2023/05/10 09:05:59;;;;;;;4.33;3.90;;;16.00;99.90;;;;;;4964824;28;20468;-82
2023/05/10 09:09:00;;;;;;;5.37;4.00;;;16.00;99.90;;;;;;4956781;29;20490;-82
2023/05/10 09:12:01;;;;;;;6.40;5.03;;;16.10;99.90;;;;;;4956493;29;20484;-82
2023/05/10 09:14:35;;;;;;;5.60;4.00;;;16.10;99.90;;;;;;4952569;29;20565;-82
2023/05/10 09:17:19;;;;;;;4.93;3.57;;;16.10;99.90;;;;;;4954057;29;20442;-82
2023/05/10 09:20:04;;;;;;;4.27;3.57;;;16.30;99.90;;;;;;4954091;28;20508;-83
2023/05/10 09:22:45;;;;;;;4.97;3.83;;;16.40;99.90;;;;;;4950526;29;20492;-82
2023/05/10 09:25:38;;;;;;;5.73;3.97;;;16.50;99.90;;;;;;4961717;28;20457;-83
2023/05/10 09:28:22;;;;;;;4.87;4.37;;;16.60;99.90;;;;;;4966060;28;20533;-82
2023/05/10 09:31:17;;;;;;;5.30;4.13;;;16.60;99.90;;;;;;4948286;29;20548;-82
2023/05/10 09:33:55;;;;;;;5.40;4.40;;;16.80;99.90;;;;;;4952843;29;20453;-83
2023/05/10 09:36:32;;;;;;;6.13;4.80;;;17.00;99.90;;;;;;4949142;29;20461;-83
2023/05/10 09:39:04;;;;;;;4.63;4.17;;;17.00;99.90;;;;;;4936474;29;20489;-84
2023/05/10 09:41:45;;;;;;;6.37;4.67;;;17.00;99.90;;;;;;4942278;29;20576;-84
2023/05/10 09:44:26;;;;;;;10.80;7.57;;;16.80;99.90;;;;;;4942747;29;20449;-84
2023/05/10 09:47:18;;;;;;;7.33;6.43;;;16.50;99.90;;;;;;4932056;29;20449;-84
2023/05/10 09:50:05;;;;;;;9.60;5.10;;;16.30;99.90;;;;;;4932453;29;20481;-84
2023/05/10 09:53:02;;;;;;;8.00;5.30;;;16.10;99.90;;;;;;4935078;29;20855;-84
2023/05/10 09:55:51;;;;;;;8.60;5.30;;;15.90;99.90;;;;;;4930909;29;20456;-84
2023/05/10 10:02:03;;;;;;;6.80;5.07;;;15.90;99.90;;;;;;4936566;29;20564;-82
2023/05/10 10:04:49;;;;;;;9.27;5.93;;;15.80;99.90;;;;;;4953198;28;20476;-82
2023/05/10 10:07:51;;;;;;;6.60;5.40;;;16.00;99.90;;;;;;4944108;29;20505;-81
2023/05/10 10:10:44;;;;;;;14.13;8.90;;;16.10;99.90;;;;;;4945084;29;20521;-83
2023/05/10 10:13:22;;;;;;;7.57;4.57;;;16.50;99.90;;;;;;4943717;29;20454;-83
2023/05/10 10:16:17;;;;;;;6.37;4.73;;;16.80;99.90;;;;;;4948773;29;20446;-83
2023/05/10 10:18:55;;;;;;;8.90;4.77;;;17.10;99.90;;;;;;4962432;28;20497;-82
2023/05/10 10:21:41;;;;;;;6.00;4.60;;;17.20;99.90;;;;;;4962645;28;20476;-81
2023/05/10 10:24:19;;;;;;;4.90;3.90;;;17.30;99.90;;;;;;4938126;28;20461;-82
2023/05/10 10:27:29;;;;;;;5.00;3.83;;;17.40;99.90;;;;;;4950302;28;20467;-81
2023/05/10 10:30:50;;;;;;;6.87;4.27;;;17.50;99.90;;;;;;4949083;28;20457;-82
2023/05/10 10:34:01;;;;;;;8.70;4.60;;;17.70;99.90;;;;;;4928681;29;20454;-84
2023/05/10 10:36:42;;;;;;;5.10;4.03;;;18.10;99.90;;;;;;4943346;29;20522;-84
2023/05/10 10:39:36;;;;;;;;;;;;;;;;;;;;;
2023/05/10 10:42:18;;;;;;;4.80;4.10;;;19.00;99.20;;;;;;4939298;29;20488;-83
2023/05/10 10:45:16;;;;;;;5.80;4.23;;;19.40;97.70;;;;;;4935084;29;21192;-83
2023/05/10 10:51:32;;;;;;;6.00;4.20;;;19.30;96.50;;;;;;4938852;29;20480;-82
2023/05/10 10:54:14;;;;;;;6.97;3.87;;;19.20;96.40;;;;;;4953218;28;20596;-83
2023/05/10 10:57:26;;;;;;;6.17;4.70;;;19.20;96.70;;;;;;4951197;28;20907;-83
2023/05/10 11:00:23;;;;;;;6.07;4.30;;;19.00;96.50;;;;;;4943137;29;20478;-85
2023/05/10 11:06:46;;;;;;;5.87;4.10;;;19.00;96.60;;;;;;4924842;29;20461;-84
2023/05/10 11:09:41;;;;;;;5.70;4.17;;;19.20;96.20;;;;;;4938761;29;20478;-83
2023/05/10 11:12:12;;;;;;;5.50;3.40;;;19.40;96.50;;;;;;4932239;29;20478;-83
2023/05/10 11:14:51;;;;;;;6.23;3.40;;;19.30;96.40;;;;;;4936404;29;20465;-82
2023/05/10 11:17:29;;;;;;;3.20;2.90;;;19.10;96.10;;;;;;4935566;29;20467;-82
2023/05/10 11:20:11;;;;;;;5.00;3.80;;;18.80;96.00;;;;;;4936626;29;20489;-84
2023/05/10 11:22:58;;;;;;;4.57;3.37;;;18.60;96.50;;;;;;4932601;29;20549;-83
2023/05/10 11:25:58;;;;;;;5.20;3.33;;;18.70;97.30;;;;;;4932042;29;20462;-83
2023/05/10 11:28:48;;;;;;;2.63;2.20;;;18.60;97.60;;;;;;4923089;29;20453;-82
2023/05/10 11:32:14;;;;;;;3.07;2.10;;;18.50;97.60;;;;;;4929627;29;20487;-82
2023/05/10 11:34:52;;;;;;;2.50;2.30;;;18.30;97.20;;;;;;4915058;29;20470;-81
2023/05/10 11:37:43;;;;;;;3.70;2.50;;;18.10;97.20;;;;;;4933281;29;20549;-81
2023/05/10 11:40:17;;;;;;;3.60;2.80;;;18.00;97.60;;;;;;4930438;29;20481;-82
2023/05/10 11:42:49;;;;;;;4.53;2.10;;;18.10;97.80;;;;;;4939078;29;20469;-81
2023/05/10 11:45:36;;;;;;;6.00;2.53;;;18.10;97.80;;;;;;4931275;29;20442;-82
2023/05/10 11:48:06;;;;;;;3.33;2.17;;;18.20;97.90;;;;;;4947706;29;20461;-84
2023/05/10 11:50:41;;;;;;;2.40;1.80;;;18.10;97.70;;;;;;4934699;29;20718;-83
2023/05/10 11:53:15;;;;;;;2.70;2.07;;;18.10;97.30;;;;;;4937948;29;20501;-82
2023/05/10 11:56:09;;;;;;;7.07;3.47;;;17.90;97.00;;;;;;4934901;29;20877;-84
2023/05/10 11:58:51;;;;;;;3.10;2.17;;;17.80;96.70;;;;;;4932028;29;20470;-84
2023/05/10 12:01:45;;;;;;;2.40;1.60;;;17.70;96.80;;;;;;4932153;29;20528;-83
2023/05/10 12:04:30;;;;;;;1.67;1.50;;;17.80;96.80;;;;;;4937716;29;20543;-84
2023/05/10 12:07:12;;;;;;;1.90;1.80;;;17.80;96.80;;;;;;4947805;29;20452;-83
2023/05/10 12:10:01;;;;;;;3.10;2.00;;;17.90;96.70;;;;;;4943214;28;20550;-84
2023/05/10 12:12:48;;;;;;;2.97;2.17;;;18.00;96.20;;;;;;4928057;29;20485;-84
2023/05/10 12:15:33;;;;;;;2.37;1.90;;;18.10;96.30;;;;;;4949000;28;20502;-84
2023/05/10 12:18:26;;;;;;;2.20;2.00;;;18.10;95.90;;;;;;4933789;29;20460;-83
2023/05/10 12:21:06;;;;;;;1.60;1.30;;;18.10;95.80;;;;;;4940593;29;20521;-83
2023/05/10 12:23:40;;;;;;;1.83;1.63;;;18.30;95.90;;;;;;4937765;29;20450;-83
2023/05/10 12:26:34;;;;;;;1.50;1.40;;;18.30;95.80;;;;;;4957133;28;20539;-83
2023/05/10 12:29:39;;;;;;;1.60;1.50;;;18.40;95.10;;;;;;4934427;29;20478;-84
2023/05/10 12:32:56;;;;;;;3.03;1.83;;;18.50;94.90;;;;;;4920577;29;20470;-84
2023/05/10 12:35:56;;;;;;;1.40;1.30;;;18.70;94.40;;;;;;4933210;29;20473;-84
2023/05/10 12:38:47;;;;;;;2.07;1.40;;;18.90;94.10;;;;;;4933797;29;20819;-83
2023/05/10 12:41:24;;;;;;;2.20;2.00;;;19.20;94.20;;;;;;4935603;29;20863;-84
2023/05/10 12:44:07;;;;;;;2.67;1.50;;;19.40;93.60;;;;;;4915891;29;20472;-83
2023/05/10 12:46:43;;;;;;;2.00;1.80;;;19.40;92.90;;;;;;4941801;28;21100;-83
2023/05/10 12:49:10;;;;;;;1.60;1.50;;;19.30;92.60;;;;;;4939849;29;20466;-82
2023/05/10 12:51:37;;;;;;;1.70;1.60;;;19.20;93.10;;;;;;4934540;29;20478;-83
2023/05/10 12:54:03;;;;;;;1.83;1.70;;;19.30;93.10;;;;;;4953736;29;20469;-82
2023/05/10 12:56:30;;;;;;;1.93;1.50;;;19.70;92.50;;;;;;4939122;29;20517;-83
2023/05/10 12:58:57;;;;;;;1.50;1.40;;;19.90;91.80;;;;;;4930571;29;20493;-84
2023/05/10 13:01:23;;;;;;;1.30;1.20;;;19.90;91.10;;;;;;4928589;29;20497;-83
2023/05/10 13:03:50;;;;;;;1.60;1.50;;;19.90;91.10;;;;;;4950987;28;20548;-83
2023/05/10 13:06:20;;;;;;;1.57;1.47;;;20.20;91.00;;;;;;4941494;29;20453;-83
2023/05/10 13:08:47;;;;;;;1.50;1.40;;;20.60;90.80;;;;;;4938744;29;20457;-83
2023/05/10 13:11:16;;;;;;;1.70;1.60;;;20.70;90.20;;;;;;4941650;29;20496;-84
2023/05/10 13:13:43;;;;;;;1.30;1.20;;;20.70;89.90;;;;;;4937428;29;20454;-85
2023/05/10 13:16:09;;;;;;;1.40;1.30;;;20.70;89.50;;;;;;4933516;29;20528;-84
2023/05/10 13:18:36;;;;;;;1.30;1.20;;;20.70;87.90;;;;;;4940537;29;20476;-85
2023/05/10 13:21:05;;;;;;;1.50;1.40;;;20.90;87.80;;;;;;4942720;29;20505;-83
2023/05/10 13:23:32;;;;;;;1.80;1.40;;;21.00;86.40;;;;;;4933573;29;20541;-84
2023/05/10 13:25:58;;;;;;;1.10;1.00;;;20.90;85.70;;;;;;4940289;29;20856;-84
2023/05/10 13:28:26;;;;;;;1.63;1.53;;;21.00;86.10;;;;;;4956858;28;20464;-86
2023/05/10 13:30:52;;;;;;;1.30;1.20;;;21.00;85.40;;;;;;4941411;29;20891;-84
2023/05/10 13:33:19;;;;;;;2.20;1.83;;;20.90;85.60;;;;;;4940853;29;21033;-86
2023/05/10 13:35:46;;;;;;;1.50;1.40;;;20.90;86.30;;;;;;4942234;29;20486;-82
2023/05/10 13:38:13;;;;;;;1.40;1.30;;;20.70;87.50;;;;;;4944457;29;20489;-85
2023/05/10 13:40:40;;;;;;;1.30;0.80;;;20.50;87.40;;;;;;4940369;29;20505;-84
2023/05/10 13:43:07;;;;;;;1.00;1.00;;;20.40;85.80;;;;;;4941718;29;20461;-84
2023/05/10 13:45:34;;;;;;;1.73;1.30;;;20.20;86.00;;;;;;4951637;29;20464;-85
2023/05/10 13:48:01;;;;;;;1.00;0.93;;;20.20;86.90;;;;;;4958335;29;20456;-84
2023/05/10 13:50:28;;;;;;;1.00;1.00;;;20.20;87.70;;;;;;4947470;29;20467;-83